• Join FlightAware (Why Join?)
  • Login
  • US Flag 
10:03AM EDT


 

Airport Tracker/Info


-or-


 

Live Flight TrackerFlight Track Log ✈ SWA1512 ✈ 12-May-2012 ✈ KELP - KDAL

Flight Track Log - Related Links

Times and Time Zones

All times are in EDT time to prevent confusion due to time zone crossing. See the SWA1512 flight status page for this flight to view local times or setup timezone preferences in your user account.

Time Position Orientation Groundspeed Altitude Reporting Facility
EDT Latitude Longitude Course Direction KTS MPH feet Rate Location/Type
09:28PM 31.8000 -106.3650 90° East 141 162 4,400  Level Albuquerque Center
09:29PM 31.7997 -106.3283 87° East 164 189 5,700 2,400 Climbing Albuquerque Center
09:30PM 31.8050 -106.2064 89° East 242 278 9,600 2,880 Climbing Albuquerque Center
09:31PM 31.8061 -106.0989 86° East 287 330 12,800 3,540 Climbing Albuquerque Center
09:32PM 31.8131 -105.9817 89° East 333 383 16,700 3,480 Climbing Albuquerque Center
09:33PM 31.8156 -105.8547 87° East 359 413 19,800 3,060 Climbing Albuquerque Center
09:34PM 31.8222 -105.7228 89° East 388 447 22,900 2,820 Climbing Albuquerque Center
09:35PM 31.8244 -105.5833 87° East 408 470 25,500 2,340 Climbing Albuquerque Center
09:36PM 31.8289 -105.4661 87° East 425 489 27,600 2,160 Climbing Albuquerque Center
09:37PM 31.8347 -105.3072 88° East 437 503 29,900 2,040 Climbing Albuquerque Center
09:38PM 31.8383 -105.1533 88° East 456 525 31,700 1,800 Climbing Albuquerque Center
09:39PM 31.8436 -104.9944 89° East 470 541 33,500 1,800 Climbing Albuquerque Center
09:40PM 31.8467 -104.8356 87° East 481 554 35,400 1,740 Climbing Albuquerque Center
09:41PM 31.8536 -104.6767 84° East 481 554 37,000 1,620 Climbing Albuquerque Center
09:42PM 31.8686 -104.5172 83° East 486 559 38,700 960 Climbing Albuquerque Center
09:43PM 31.8856 -104.3606 84° East 486 559 39,000 120 Climbing Albuquerque Center
09:44PM 31.9003 -104.2011 85° East 486 559 39,000 360 Level Albuquerque Center
09:45PM 31.9192 -103.9644 84° East 481 554 39,900 780 Climbing Fort Worth Center
09:46PM 31.9336 -103.8089 86° East 481 554 41,000 540 Climbing Fort Worth Center
09:47PM 31.9436 -103.6531 87° East 476 548 41,000  Level Fort Worth Center
09:48PM 31.9514 -103.4944 85° East 476 548 41,000  Level Fort Worth Center
09:49PM 31.9631 -103.3361 87° East 476 548 41,000  Level Fort Worth Center
09:50PM 31.9703 -103.1775 85° East 476 548 41,000  Level Fort Worth Center
09:51PM 31.9819 -103.0167 86° East 476 548 41,000  Level Fort Worth Center
09:53PM 31.9997 -102.6969 86° East 476 548 41,000  Level Fort Worth Center
09:54PM 32.0083 -102.5408 87° East 476 548 41,000  Level Fort Worth Center
09:55PM 32.0147 -102.3819 86° East 476 548 41,000  Level Fort Worth Center
09:56PM 32.0231 -102.2231 87° East 476 548 41,000  Level Fort Worth Center
09:57PM 32.0314 -102.0594 87° East 476 548 41,000  Level Fort Worth Center
09:58PM 32.0386 -101.9175 87° East 476 548 41,000  Level Fort Worth Center
10:00PM 32.0472 -101.7269 87° East 481 554 41,000  Level Fort Worth Center
10:01PM 32.0547 -101.5681 87° East 481 554 41,000  Level Fort Worth Center
10:02PM 32.0619 -101.4089 88° East 481 554 41,000  Level Fort Worth Center
10:03PM 32.0672 -101.2450 87° East 481 554 41,000  Level Fort Worth Center
10:04PM 32.0742 -101.0833 88° East 486 559 41,000  Level Fort Worth Center
10:05PM 32.0789 -100.9097 87° East 491 565 41,000  Level Fort Worth Center
10:06PM 32.0856 -100.7481 86° East 491 565 41,000  Level Fort Worth Center
10:07PM 32.0939 -100.5864 86° East 491 565 41,000  Level Fort Worth Center
10:08PM 32.1042 -100.4250 85° East 496 571 41,000  Level Fort Worth Center
10:09PM 32.1161 -100.2661 86° East 496 571 41,000  Level Fort Worth Center
10:10PM 32.1256 -100.1192 86° East 496 571 41,000  Level Fort Worth Center
10:11PM 32.1353 -99.9575 84° East 496 571 41,000  Level Fort Worth Center
10:12PM 32.1489 -99.7958 86° East 496 571 41,000  Level Fort Worth Center
10:13PM 32.1581 -99.6317 86° East 496 571 41,000  Level Fort Worth Center
10:14PM 32.1672 -99.4700 85° East 496 571 41,000  Level Fort Worth Center
10:15PM 32.1781 -99.3083 86° East 496 571 41,000 -600 Level Fort Worth Center
10:16PM 32.1892 -99.1122 86° East 496 571 39,700 -1,980 Descending Fort Worth Center
10:17PM 32.1997 -98.9503 86° East 496 571 37,100 -2,940 Descending Fort Worth Center
10:18PM 32.2100 -98.7933 86° East 496 571 33,900 -3,180 Descending Fort Worth Center
10:19PM 32.2200 -98.6289 86° East 496 571 30,800 -3,000 Descending Fort Worth Center
10:20PM 32.2297 -98.4572 87° East 485 558 27,900 -2,760 Descending Fort Worth Center
10:21PM 32.2372 -98.3025 86° East 475 547 25,300 -2,520 Descending Fort Worth Center
10:22PM 32.2467 -98.1578 87° East 455 524 22,900 -2,460 Descending Fort Worth Center
10:23PM 32.2536 -98.0178 88° East 428 493 20,400 -2,280 Descending Fort Worth Center
10:24PM 32.2583 -97.8850 85° East 412 474 18,400 -2,100 Descending Fort Worth Center
10:25PM 32.2639 -97.8033 89° East 391 450 16,900 -2,340 Descending FAA TRACON SMA TRACON (SMA)
10:25PM 32.2656 -97.7178 75° East 384 442 15,300 -1,980 Descending FAA TRACON SMA TRACON (SMA)
10:26PM 32.2836 -97.6386 57° Northeast 367 422 14,300 -1,260 Descending FAA TRACON SMA TRACON (SMA)
10:27PM 32.3197 -97.5728 55° Northeast 343 395 13,600 -1,020 Descending FAA TRACON SMA TRACON (SMA)
10:27PM 32.3528 -97.5169 56° Northeast 338 389 13,000 -1,020 Descending FAA TRACON SMA TRACON (SMA)
10:28PM 32.3889 -97.4528 56° Northeast 339 390 12,300 -1,080 Descending FAA TRACON SMA TRACON (SMA)
10:29PM 32.4253 -97.3900 56° Northeast 334 384 11,600 -1,380 Descending FAA TRACON SMA TRACON (SMA)
10:29PM 32.4567 -97.3350 57° Northeast 327 376 10,500 -1,140 Descending FAA TRACON SMA TRACON (SMA)
10:30PM 32.4886 -97.2761 56° Northeast 303 349 10,100 -840 Descending FAA TRACON SMA TRACON (SMA)
10:31PM 32.5183 -97.2236 56° Northeast 276 318 9,400 -1,200 Descending FAA TRACON SMA TRACON (SMA)
10:31PM 32.5475 -97.1731 56° Northeast 267 307 8,500 -1,320 Descending FAA TRACON SMA TRACON (SMA)
10:32PM 32.5725 -97.1289 56° Northeast 263 303 7,700 -1,320 Descending FAA TRACON SMA TRACON (SMA)
10:33PM 32.5997 -97.0806 56° Northeast 252 290 6,800 -1,320 Descending FAA TRACON SMA TRACON (SMA)
10:33PM 32.6233 -97.0383 56° Northeast 248 285 6,000 -1,080 Descending FAA TRACON SMA TRACON (SMA)
10:34PM 32.6492 -96.9922 56° Northeast 242 278 5,400 -720 Descending FAA TRACON SMA TRACON (SMA)
10:35PM 32.6731 -96.9503 56° Northeast 221 254 5,100 -480 Descending FAA TRACON SMA TRACON (SMA)
10:35PM 32.6936 -96.9147 60° Northeast 189 217 4,800 -540 Descending FAA TRACON SMA TRACON (SMA)
10:36PM 32.7078 -96.8861 62° Northeast 162 186 4,400 -900 Descending FAA TRACON SMA TRACON (SMA)
10:37PM 32.7211 -96.8558 50° Northeast 151 174 3,600 -1,080 Descending FAA TRACON SMA TRACON (SMA)
10:37PM 32.7383 -96.8311 21° North 144 166 3,000 -1,020 Descending FAA TRACON SMA TRACON (SMA)
10:38PM 32.7594 -96.8214 14° North 132 152 2,300 -1,020 Descending FAA TRACON SMA TRACON (SMA)
10:39PM 32.7833 -96.8144 North 122 140 1,700 -900 Descending FAA TRACON SMA TRACON (SMA)
10:39PM 32.8072 -96.8142 324° Northwest 124 143 1,100 -600 Descending FAA TRACON SMA TRACON (SMA)
10:40PM 32.8244 -96.8289 182° South 129 148 900 -300 Descending FAA TRACON SMA TRACON (SMA)
10:48PM 31.8528 -96.8686 182° South  Level FlightAware Approximate